Time;durP1;ratioP1;P1;durP2;ratioP2;P2;SDS_P1;SDS_P2;PMS_P1;PMS_P2;Temp;Humidity;BMP_temperature;BMP_pressure;BME280_temperature;BME280_humidity;BME280_pressure;Samples;Min_cycle;Max_cycle;Signal;HPM_P1;HPM_P2
2021/03/08 00:00:46;;;;;;;18.63;13.25;;;-0.20;99.90;;;;;;5095679;28;20720;-85
2021/03/08 00:03:14;;;;;;;21.80;14.25;;;0.00;99.90;;;;;;5096769;28;20707;-86
2021/03/08 00:05:41;;;;;;;19.17;12.98;;;;;;;;;;5096237;28;20233;-86
2021/03/08 00:08:08;;;;;;;20.80;13.15;;;;;;;;;;5096795;28;20284;-86
2021/03/08 00:10:34;;;;;;;27.08;13.27;;;;;;;;;;5083836;28;20632;-86
2021/03/08 00:13:01;;;;;;;25.88;14.00;;;;;;;;;;5076209;28;20237;-86
2021/03/08 00:15:29;;;;;;;24.50;13.32;;;-0.30;99.90;;;;;;5074920;28;20233;-86
2021/03/08 00:17:55;;;;;;;22.23;11.98;;;;;;;;;;5076379;28;20658;-86
2021/03/08 00:20:24;;;;;;;20.05;12.93;;;-0.20;99.90;;;;;;5075567;28;20297;-85
2021/03/08 00:22:51;;;;;;;27.23;13.50;;;;;;;;;;5076224;28;20217;-86
2021/03/08 00:25:20;;;;;;;20.40;12.60;;;-0.30;99.90;;;;;;5075705;28;20232;-84
2021/03/08 00:27:47;;;;;;;27.67;13.02;;;;;;;;;;5075886;28;20238;-85
2021/03/08 00:30:14;;;;;;;19.27;11.35;;;-0.50;99.90;;;;;;5074801;28;20628;-85
2021/03/08 00:32:43;;;;;;;27.48;14.18;;;-0.50;99.90;;;;;;5075731;28;20237;-86
2021/03/08 00:35:11;;;;;;;20.42;12.65;;;-0.50;99.90;;;;;;5075545;28;20300;-85
2021/03/08 00:37:38;;;;;;;25.55;12.90;;;-0.60;99.90;;;;;;5075565;28;20268;-85
2021/03/08 00:40:07;;;;;;;25.17;13.35;;;-0.70;99.90;;;;;;5075389;28;20240;-85
2021/03/08 00:42:33;;;;;;;18.88;10.93;;;-0.70;99.90;;;;;;5076227;28;20206;-86
2021/03/08 00:45:00;;;;;;;20.02;9.25;;;;;;;;;;5074184;28;20292;-84
2021/03/08 00:47:27;;;;;;;18.38;11.40;;;-0.70;99.90;;;;;;5075759;28;20255;-84
2021/03/08 00:49:54;;;;;;;28.58;12.95;;;-0.50;99.90;;;;;;5074901;28;20700;-85
2021/03/08 00:52:21;;;;;;;21.85;12.57;;;;;;;;;;5075266;28;20240;-84
2021/03/08 00:54:47;;;;;;;23.88;12.60;;;;;;;;;;5075283;28;20285;-84
2021/03/08 00:57:14;;;;;;;16.55;10.95;;;;;;;;;;5075245;28;20314;-84
2021/03/08 00:59:41;;;;;;;18.67;12.82;;;;;;;;;;5074294;28;20292;-85
2021/03/08 01:02:08;;;;;;;20.90;12.32;;;;;;;;;;5075318;28;20292;-85
2021/03/08 01:04:34;;;;;;;27.25;15.65;;;;;;;;;;5073871;28;20233;-84
2021/03/08 01:07:02;;;;;;;30.85;15.30;;;-0.80;99.90;;;;;;5075065;28;20233;-84
2021/03/08 01:09:29;;;;;;;22.85;13.68;;;;;;;;;;5075351;28;20288;-84
2021/03/08 01:11:56;;;;;;;25.63;12.98;;;;;;;;;;5094460;28;20291;-84
2021/03/08 01:14:23;;;;;;;28.33;15.13;;;;;;;;;;5094356;28;20289;-84
2021/03/08 01:16:49;;;;;;;24.50;14.55;;;;;;;;;;5095175;28;20236;-84
2021/03/08 01:19:16;;;;;;;23.13;14.30;;;;;;;;;;5095168;28;20293;-84
2021/03/08 01:21:43;;;;;;;23.35;13.13;;;;;;;;;;5095690;28;20288;-86
2021/03/08 01:24:11;;;;;;;19.30;11.88;;;;;;;;;;5095032;28;20224;-85
2021/03/08 01:26:37;;;;;;;19.50;11.88;;;;;;;;;;5095317;28;20205;-85
2021/03/08 01:29:04;;;;;;;30.10;12.27;;;;;;;;;;5093663;28;20280;-84
2021/03/08 01:31:31;;;;;;;37.05;13.82;;;;;;;;;;5095136;28;20287;-84
2021/03/08 01:33:58;;;;;;;29.98;13.65;;;;;;;;;;5107997;28;20207;-84
2021/03/08 01:36:25;;;;;;;23.20;14.05;;;;;;;;;;5115504;28;20232;-84
2021/03/08 01:38:51;;;;;;;20.70;10.82;;;;;;;;;;5112045;28;20241;-84
2021/03/08 01:41:19;;;;;;;25.92;12.93;;;;;;;;;;5096252;28;20204;-84
2021/03/08 01:43:46;;;;;;;24.63;12.07;;;;;;;;;;5094272;28;20248;-84
2021/03/08 01:46:12;;;;;;;27.23;14.10;;;-1.30;99.90;;;;;;5094789;28;20289;-84
2021/03/08 01:48:39;;;;;;;20.58;13.15;;;;;;;;;;5094112;28;20225;-84
2021/03/08 01:51:06;;;;;;;24.90;14.40;;;;;;;;;;5094615;28;20778;-84
2021/03/08 01:53:35;;;;;;;17.00;11.05;;;-1.20;99.90;;;;;;5094533;28;20288;-84
2021/03/08 01:56:02;;;;;;;17.90;12.18;;;;;;;;;;5093987;28;20201;-84
2021/03/08 01:58:29;;;;;;;20.05;11.60;;;-1.20;99.90;;;;;;5094550;28;20283;-84
2021/03/08 02:00:56;;;;;;;20.85;12.57;;;;;;;;;;5093044;28;20257;-84
2021/03/08 02:03:23;;;;;;;28.00;13.10;;;;;;;;;;5094093;28;20672;-84
2021/03/08 02:05:50;;;;;;;26.42;15.68;;;;;;;;;;5094527;28;20291;-84
2021/03/08 02:08:18;;;;;;;22.70;14.25;;;-1.00;99.90;;;;;;5094537;28;20819;-83
2021/03/08 02:10:45;;;;;;;17.83;10.32;;;;;;;;;;5093357;28;20695;-84
2021/03/08 02:13:39;;;;;;;20.27;12.45;;;-0.80;99.90;;;;;;5093789;28;20677;-85
2021/03/08 02:16:12;;;;;;;15.05;10.45;;;-0.80;99.90;;;;;;5091869;28;20567;-84
2021/03/08 02:18:49;;;;;;;23.58;13.18;;;-0.80;99.90;;;;;;5092963;28;20316;-85
2021/03/08 02:21:31;;;;;;;21.38;11.60;;;-0.80;99.90;;;;;;5093852;28;20291;-85
2021/03/08 02:24:40;;;;;;;21.50;13.35;;;-0.80;99.90;;;;;;5094004;28;20667;-85
2021/03/08 02:27:15;;;;;;;23.00;9.80;;;-0.80;99.90;;;;;;5093677;28;20323;-87
2021/03/08 02:30:09;;;;;;;17.85;10.57;;;;;;;;;;5092229;28;20256;-85
2021/03/08 02:32:42;;;;;;;25.30;13.25;;;-0.80;99.90;;;;;;5093674;28;20292;-87
2021/03/08 02:35:13;;;;;;;15.95;11.43;;;-0.90;99.90;;;;;;5093721;28;20205;-86
2021/03/08 02:37:47;;;;;;;18.85;11.80;;;-0.90;99.90;;;;;;5093345;28;20319;-85
2021/03/08 02:40:18;;;;;;;21.80;13.15;;;-0.80;99.90;;;;;;5093461;28;20285;-85
2021/03/08 02:42:50;;;;;;;16.63;11.02;;;-1.50;99.90;;;;;;5093454;28;20233;-85
2021/03/08 02:45:18;;;;;;;23.25;14.35;;;-1.70;99.90;;;;;;5092289;28;20255;-85
2021/03/08 02:47:48;;;;;;;22.90;14.35;;;-1.70;99.90;;;;;;5093508;28;20291;-85
2021/03/08 02:50:16;;;;;;;22.50;13.77;;;-1.80;99.90;;;;;;5073344;28;20296;-84
2021/03/08 02:52:47;;;;;;;20.55;13.38;;;-1.80;99.90;;;;;;5073105;28;20205;-85
2021/03/08 02:55:14;;;;;;;23.65;13.45;;;;;;;;;;5073320;28;20209;-85
2021/03/08 02:57:43;;;;;;;22.42;11.20;;;-1.70;99.90;;;;;;5072921;28;20313;-85
2021/03/08 03:00:12;;;;;;;20.17;10.18;;;-1.00;99.90;;;;;;5071788;28;20237;-85
2021/03/08 03:02:41;;;;;;;18.50;11.35;;;-1.70;99.90;;;;;;5073199;28;20285;-86
2021/03/08 03:05:11;;;;;;;19.13;10.98;;;-1.70;99.90;;;;;;5073971;28;20262;-85
2021/03/08 03:07:42;;;;;;;18.23;11.07;;;-1.80;99.90;;;;;;5071961;28;20248;-85
2021/03/08 03:10:09;;;;;;;20.52;11.70;;;;;;;;;;5075003;28;20242;-84
2021/03/08 03:12:37;;;;;;;19.15;11.32;;;-1.90;99.90;;;;;;5090734;28;20283;-85
2021/03/08 03:15:06;;;;;;;15.02;8.75;;;-1.90;99.90;;;;;;5107410;28;20191;-85
2021/03/08 03:17:35;;;;;;;18.92;10.45;;;-2.00;99.90;;;;;;5116914;28;20209;-85
2021/03/08 03:20:03;;;;;;;26.70;11.45;;;-1.90;99.90;;;;;;5102720;28;20236;-85
2021/03/08 03:22:31;;;;;;;20.08;11.25;;;;;;;;;;5088591;28;20220;-85
2021/03/08 03:25:00;;;;;;;17.40;10.27;;;-1.90;99.90;;;;;;5098189;28;20186;-85
2021/03/08 03:27:27;;;;;;;20.13;10.73;;;-1.90;99.90;;;;;;5099806;28;20219;-86
2021/03/08 03:29:55;;;;;;;16.23;10.70;;;-1.90;99.90;;;;;;5102636;28;20189;-86
2021/03/08 03:32:22;;;;;;;10.40;8.23;;;-2.00;99.90;;;;;;5099932;28;20197;-86
2021/03/08 03:34:49;;;;;;;18.98;12.25;;;-2.00;99.90;;;;;;5079822;28;20218;-85
2021/03/08 03:37:20;;;;;;;24.00;11.40;;;-1.90;99.90;;;;;;5077453;28;20251;-85
2021/03/08 03:39:48;;;;;;;22.35;11.88;;;;;;;;;;5077024;28;20209;-85
2021/03/08 03:42:15;;;;;;;18.73;10.48;;;;;;;;;;5076741;28;20296;-85
2021/03/08 03:44:42;;;;;;;19.13;12.00;;;;;;;;;;5076353;28;20327;-84
2021/03/08 03:47:09;;;;;;;21.98;9.98;;;;;;;;;;5076977;28;20624;-85
2021/03/08 03:49:35;;;;;;;22.52;10.38;;;;;;;;;;5090864;28;20283;-85
2021/03/08 03:52:02;;;;;;;17.73;10.63;;;;;;;;;;5096948;28;20240;-85
2021/03/08 03:54:29;;;;;;;17.95;10.48;;;;;;;;;;5096907;28;20299;-85
2021/03/08 03:57:02;;;;;;;23.10;11.57;;;-1.90;99.90;;;;;;5096646;28;20676;-85
2021/03/08 03:59:32;;;;;;;17.63;11.68;;;-1.90;99.90;;;;;;5095436;28;20762;-85
2021/03/08 04:02:02;;;;;;;22.23;11.05;;;-1.80;99.90;;;;;;5096882;28;20287;-84
2021/03/08 04:04:34;;;;;;;16.70;13.10;;;-1.90;99.90;;;;;;5096689;28;20201;-84
2021/03/08 04:07:03;;;;;;;28.08;11.82;;;-2.00;99.90;;;;;;5096841;28;20205;-84
2021/03/08 04:09:32;;;;;;;22.58;12.00;;;-2.00;99.90;;;;;;5096740;28;20291;-84
2021/03/08 04:12:02;;;;;;;21.17;10.88;;;-2.00;99.90;;;;;;5095382;28;20292;-85
2021/03/08 04:14:31;;;;;;;19.27;12.43;;;-2.10;99.90;;;;;;5095036;28;20295;-85
2021/03/08 04:16:58;;;;;;;20.83;12.63;;;-2.20;99.90;;;;;;5096553;28;20280;-85
2021/03/08 04:19:28;;;;;;;24.40;13.60;;;-2.30;99.90;;;;;;5084389;28;20297;-84
2021/03/08 04:22:00;;;;;;;21.45;9.65;;;-2.30;99.90;;;;;;5076050;28;20284;-84
2021/03/08 04:24:28;;;;;;;15.65;10.45;;;-2.30;99.90;;;;;;5076354;28;20575;-85
2021/03/08 04:26:55;;;;;;;26.17;11.15;;;-2.30;99.90;;;;;;5075825;28;20206;-85
2021/03/08 04:29:23;;;;;;;24.40;10.30;;;;;;;;;;5074672;28;20320;-85
2021/03/08 04:31:50;;;;;;;17.60;9.32;;;-2.30;99.90;;;;;;5075865;28;20229;-85
2021/03/08 04:34:17;;;;;;;15.77;9.63;;;;;;;;;;5075679;28;20297;-86
2021/03/08 04:36:44;;;;;;;18.08;10.65;;;-2.20;99.90;;;;;;5076040;28;20344;-85
2021/03/08 04:39:11;;;;;;;17.30;10.48;;;-2.20;99.90;;;;;;5075598;28;20783;-85
2021/03/08 04:41:38;;;;;;;15.88;9.13;;;;;;;;;;5075276;28;20223;-86
2021/03/08 04:44:08;;;;;;;24.92;14.25;;;-2.30;99.90;;;;;;5073948;28;20293;-86
2021/03/08 04:46:36;;;;;;;21.15;10.38;;;;;;;;;;5075016;28;20237;-86
2021/03/08 04:49:05;;;;;;;19.17;11.38;;;-2.40;99.90;;;;;;5074391;28;20263;-85
2021/03/08 04:51:33;;;;;;;19.70;10.40;;;-2.30;99.90;;;;;;5074907;28;20212;-85
2021/03/08 04:54:02;;;;;;;20.13;9.35;;;-2.30;99.90;;;;;;5075526;28;20209;-86
2021/03/08 04:56:31;;;;;;;17.95;10.70;;;-2.40;99.90;;;;;;5075458;28;20229;-87
2021/03/08 04:58:58;;;;;;;19.23;10.30;;;;;;;;;;5073773;28;20236;-86
2021/03/08 05:01:27;;;;;;;18.92;11.15;;;-2.40;99.90;;;;;;5074887;28;20241;-83
2021/03/08 05:03:56;;;;;;;18.08;11.38;;;-2.50;99.90;;;;;;5074361;28;20197;-84
2021/03/08 05:06:25;;;;;;;25.42;11.93;;;-2.60;99.90;;;;;;5074907;28;20240;-84
2021/03/08 05:08:53;;;;;;;22.38;10.77;;;-2.70;99.90;;;;;;5074791;28;20301;-83
2021/03/08 05:11:20;;;;;;;19.98;13.65;;;;;;;;;;5074292;28;20297;-83
2021/03/08 05:13:48;;;;;;;21.10;10.77;;;-2.60;99.90;;;;;;5073399;28;20229;-82
2021/03/08 05:16:15;;;;;;;21.17;10.48;;;;;;;;;;5074632;28;20297;-82
2021/03/08 05:18:43;;;;;;;22.15;9.55;;;-2.70;99.90;;;;;;5074687;28;20324;-83
2021/03/08 05:21:13;;;;;;;19.50;11.63;;;-2.70;99.90;;;;;;5073539;28;20297;-82
2021/03/08 05:23:40;;;;;;;21.70;12.27;;;-2.60;99.90;;;;;;5074521;28;20561;-83
2021/03/08 05:26:07;;;;;;;21.65;11.93;;;;;;;;;;5074427;28;20647;-82
2021/03/08 05:28:34;;;;;;;24.70;12.65;;;-2.80;99.90;;;;;;5074294;28;20287;-82
2021/03/08 05:31:02;;;;;;;16.20;10.55;;;-2.80;99.90;;;;;;5073002;28;20292;-82
2021/03/08 05:33:30;;;;;;;19.60;10.82;;;-2.90;99.90;;;;;;5074273;28;20237;-82
2021/03/08 05:35:58;;;;;;;25.02;11.35;;;-2.90;99.90;;;;;;5074042;28;20209;-82
2021/03/08 05:38:28;;;;;;;25.13;14.18;;;-2.90;99.90;;;;;;5074050;28;20312;-83
2021/03/08 05:41:04;;;;;;;20.00;10.75;;;-2.90;99.90;;;;;;5074383;28;20201;-82
2021/03/08 05:43:33;;;;;;;14.10;9.60;;;-2.70;99.90;;;;;;5073907;28;20201;-82
2021/03/08 05:46:02;;;;;;;19.50;9.30;;;-2.90;99.90;;;;;;5072920;28;20289;-82
2021/03/08 05:49:11;;;;;;;19.75;10.93;;;-2.80;99.90;;;;;;5073986;28;20288;-81
2021/03/08 05:52:03;;;;;;;21.25;10.13;;;-2.80;99.90;;;;;;5073436;28;20209;-83
2021/03/08 05:54:48;;;;;;;22.75;10.15;;;-2.80;99.90;;;;;;5073775;28;20719;-82
2021/03/08 05:57:25;;;;;;;21.63;13.05;;;-2.80;99.90;;;;;;5074004;28;20304;-82
2021/03/08 06:00:08;;;;;;;23.35;10.48;;;-2.80;99.90;;;;;;5072444;28;20296;-82
2021/03/08 06:02:56;;;;;;;28.20;12.88;;;-2.80;99.90;;;;;;5073792;28;20210;-82
2021/03/08 06:06:00;;;;;;;11.80;9.32;;;-2.70;99.90;;;;;;5069984;28;20289;-83
2021/03/08 06:09:18;;;;;;;18.38;12.95;;;-2.60;99.90;;;;;;5073479;28;20200;-83
2021/03/08 06:11:52;;;;;;;19.85;12.05;;;-2.60;99.90;;;;;;5072940;28;20284;-82
2021/03/08 06:14:23;;;;;;;24.08;14.55;;;-2.60;99.90;;;;;;5072285;28;20296;-83
2021/03/08 06:16:51;;;;;;;22.90;10.60;;;-2.60;99.90;;;;;;5073505;28;20292;-83
2021/03/08 06:19:19;;;;;;;22.02;12.43;;;-2.50;99.90;;;;;;5073490;28;20320;-83
2021/03/08 06:21:48;;;;;;;19.50;12.25;;;-2.50;99.90;;;;;;5074760;28;20244;-83
2021/03/08 06:24:16;;;;;;;12.88;8.85;;;-2.40;99.90;;;;;;5073387;28;20672;-83
2021/03/08 06:26:46;;;;;;;17.40;10.05;;;-2.30;99.90;;;;;;5073483;28;20334;-82
2021/03/08 06:29:13;;;;;;;25.13;14.23;;;;;;;;;;5071765;28;20241;-84
2021/03/08 06:31:40;;;;;;;19.50;11.07;;;;;;;;;;5072927;28;20284;-84
2021/03/08 06:34:06;;;;;;;20.92;11.32;;;;;;;;;;5073280;28;20491;-85
2021/03/08 06:36:33;;;;;;;22.13;11.38;;;;;;;;;;5072597;28;20734;-85
2021/03/08 06:39:00;;;;;;;18.05;10.95;;;;;;;;;;5072985;28;20321;-85
2021/03/08 06:41:27;;;;;;;13.98;12.00;;;;;;;;;;5073221;28;20312;-85
2021/03/08 06:43:54;;;;;;;19.83;12.63;;;;;;;;;;5071717;28;20284;-83
2021/03/08 06:46:21;;;;;;;23.17;12.73;;;;;;;;;;5073210;28;20300;-84
2021/03/08 06:48:48;;;;;;;21.50;12.80;;;;;;;;;;5073302;28;20288;-85
2021/03/08 06:51:16;;;;;;;18.77;12.68;;;-1.60;99.90;;;;;;5072925;28;20293;-84
2021/03/08 06:53:43;;;;;;;20.85;11.05;;;;;;;;;;5072786;28;20724;-86
2021/03/08 06:56:17;;;;;;;24.33;13.27;;;-1.40;99.90;;;;;;5074544;28;20233;-85
2021/03/08 06:58:44;;;;;;;18.80;11.15;;;;;;;;;;5073637;28;20335;-84
2021/03/08 07:01:31;;;;;;;19.55;11.38;;;-1.30;99.90;;;;;;5080113;28;20236;-84
2021/03/08 07:03:59;;;;;;;20.48;13.15;;;-1.10;99.90;;;;;;5073441;28;20205;-84
2021/03/08 07:06:25;;;;;;;17.85;11.40;;;;;;;;;;5072722;28;20210;-84
2021/03/08 07:09:03;;;;;;;20.40;11.77;;;;;;;;;;5072854;28;20251;-83
2021/03/08 07:11:29;;;;;;;21.95;12.38;;;;;;;;;;5072821;28;20656;-84
2021/03/08 07:13:56;;;;;;;26.33;13.27;;;;;;;;;;5071648;28;20347;-87
2021/03/08 07:16:34;;;;;;;27.33;13.18;;;-0.60;99.90;;;;;;5072838;28;20329;-84
2021/03/08 07:19:01;;;;;;;30.00;19.77;;;;;;;;;;5072576;28;20232;-84
2021/03/08 07:21:28;;;;;;;18.98;12.43;;;;;;;;;;5072633;28;20608;-83
2021/03/08 07:23:55;;;;;;;17.00;12.57;;;;;;;;;;5073178;28;20296;-85
2021/03/08 07:26:22;;;;;;;23.23;12.20;;;-0.30;99.90;;;;;;5073280;28;20233;-87
2021/03/08 07:29:08;;;;;;;24.90;12.82;;;;;;;;;;5095192;28;20221;-83
2021/03/08 07:31:37;;;;;;;23.80;14.68;;;-0.30;99.90;;;;;;5090511;28;20237;-84
2021/03/08 07:34:05;;;;;;;21.00;12.43;;;-0.30;99.90;;;;;;5080715;28;20219;-84
2021/03/08 07:36:32;;;;;;;18.30;12.57;;;;;;;;;;5095594;28;20212;-84
2021/03/08 07:38:58;;;;;;;23.63;15.43;;;;;;;;;;5116578;28;20231;-86
2021/03/08 07:41:25;;;;;;;20.65;13.85;;;;;;;;;;5112551;28;20201;-84
2021/03/08 07:44:05;;;;;;;21.15;12.05;;;0.00;99.90;;;;;;5098618;28;20193;-86
2021/03/08 07:46:33;;;;;;;19.95;11.05;;;0.00;99.90;;;;;;5104821;28;20212;-87
2021/03/08 07:49:03;;;;;;;19.90;12.80;;;0.20;99.90;;;;;;5092620;28;20243;-85
2021/03/08 07:51:30;;;;;;;20.17;12.70;;;;;;;;;;5092877;28;20288;-84
2021/03/08 07:54:00;;;;;;;24.38;15.32;;;;;;;;;;5092553;28;20212;-87
2021/03/08 07:56:27;;;;;;;25.05;12.65;;;;;;;;;;5092908;28;20313;-84
2021/03/08 07:58:54;;;;;;;20.70;13.35;;;;;;;;;;5091640;28;20691;-88
2021/03/08 08:01:21;;;;;;;18.75;12.40;;;;;;;;;;5092519;28;20197;-85
2021/03/08 08:03:48;;;;;;;17.02;11.02;;;;;;;;;;5092907;28;20577;-85
2021/03/08 08:06:20;;;;;;;16.60;11.15;;;0.90;99.90;;;;;;5092142;28;20209;-84
2021/03/08 08:08:49;;;;;;;23.58;13.90;;;0.90;99.90;;;;;;5092885;28;20289;-86
2021/03/08 08:11:17;;;;;;;27.52;14.40;;;1.10;99.90;;;;;;5092694;28;20209;-82
2021/03/08 08:13:45;;;;;;;17.10;10.55;;;1.20;99.90;;;;;;5093824;28;20296;-83
2021/03/08 08:16:13;;;;;;;22.20;12.07;;;1.40;99.90;;;;;;5095295;28;20196;-87
2021/03/08 08:18:41;;;;;;;19.40;11.50;;;1.50;99.90;;;;;;5095392;28;20345;-83
2021/03/08 08:21:13;;;;;;;25.10;11.43;;;;;;;;;;5094752;28;20232;-82
2021/03/08 08:23:42;;;;;;;18.27;12.60;;;1.80;99.90;;;;;;5094591;28;20519;-83
2021/03/08 08:26:12;;;;;;;17.17;11.38;;;1.90;99.90;;;;;;5096298;28;20454;-82
2021/03/08 08:28:42;;;;;;;14.88;9.75;;;2.10;99.90;;;;;;5095708;28;20229;-84
2021/03/08 08:31:09;;;;;;;13.65;8.82;;;;;;;;;;5094601;28;20287;-79
2021/03/08 08:33:36;;;;;;;18.40;10.95;;;2.40;99.90;;;;;;5095341;28;20296;-90
2021/03/08 08:36:11;;;;;;;14.88;11.50;;;2.60;99.90;;;;;;5095271;28;20262;-84
2021/03/08 08:38:37;;;;;;;15.10;10.63;;;;;;;;;;5095381;28;20514;-85
2021/03/08 08:41:22;;;;;;;18.17;10.98;;;2.80;99.90;;;;;;5095318;28;20676;-82
2021/03/08 08:44:09;;;;;;;20.23;11.15;;;2.80;99.90;;;;;;5094278;28;20710;-83
2021/03/08 08:46:38;;;;;;;16.98;9.25;;;3.10;99.90;;;;;;5095031;28;20285;-83
2021/03/08 08:49:06;;;;;;;15.93;10.85;;;;;;;;;;5094403;28;20308;-83
2021/03/08 08:51:46;;;;;;;13.63;9.40;;;;;;;;;;5094848;28;20236;-82
2021/03/08 08:54:12;;;;;;;15.40;10.73;;;;;;;;;;5095172;28;20204;-82
2021/03/08 08:56:49;;;;;;;15.27;9.95;;;;;;;;;;5095224;28;20297;-83
2021/03/08 08:59:20;;;;;;;15.55;10.88;;;2.40;99.90;;;;;;5093845;28;20338;-83
2021/03/08 09:01:47;;;;;;;14.98;10.55;;;;;;;;;;5094242;28;20215;-82
2021/03/08 09:04:15;;;;;;;14.63;10.80;;;2.70;99.90;;;;;;5074620;28;20615;-83
2021/03/08 09:06:47;;;;;;;14.98;8.93;;;2.80;99.90;;;;;;5074789;28;20240;-82
2021/03/08 09:09:16;;;;;;;14.40;10.07;;;3.80;99.90;;;;;;5074854;28;20206;-82
2021/03/08 09:11:44;;;;;;;18.45;9.95;;;3.30;99.90;;;;;;5074625;28;20201;-85
2021/03/08 09:14:26;;;;;;;19.42;10.50;;;3.30;99.90;;;;;;5083297;28;20312;-83
2021/03/08 09:17:13;;;;;;;16.73;11.82;;;3.50;99.90;;;;;;5094928;28;20216;-83
2021/03/08 09:19:41;;;;;;;16.33;9.55;;;3.40;99.90;;;;;;5093609;28;20315;-82
2021/03/08 09:22:44;;;;;;;15.07;10.00;;;2.80;99.90;;;;;;5094816;28;20292;-84
2021/03/08 09:25:19;;;;;;;20.40;11.13;;;3.50;99.90;;;;;;5093920;28;20291;-83
2021/03/08 09:27:47;;;;;;;14.90;9.90;;;3.40;99.90;;;;;;5094382;28;20268;-83
2021/03/08 09:30:16;;;;;;;14.90;9.48;;;3.60;99.90;;;;;;5093132;28;20283;-83
2021/03/08 09:32:51;;;;;;;20.67;11.23;;;3.80;99.90;;;;;;5094534;28;20229;-83
2021/03/08 09:35:20;;;;;;;15.18;10.50;;;4.00;99.90;;;;;;5094392;28;20287;-83
2021/03/08 09:37:49;;;;;;;18.05;10.98;;;4.00;99.90;;;;;;5094435;28;20244;-82
2021/03/08 09:40:18;;;;;;;16.67;10.80;;;3.90;99.90;;;;;;5094219;28;20287;-81
2021/03/08 09:42:44;;;;;;;17.13;10.38;;;4.00;99.90;;;;;;5094312;28;20287;-83
2021/03/08 09:45:20;;;;;;;20.33;11.65;;;4.00;98.90;;;;;;5093169;28;20241;-84
2021/03/08 09:47:48;;;;;;;14.55;9.73;;;4.00;99.90;;;;;;5094241;28;20208;-83
2021/03/08 09:50:17;;;;;;;19.75;10.70;;;4.10;99.90;;;;;;5093280;28;20289;-84
2021/03/08 09:52:47;;;;;;;20.63;12.07;;;4.10;99.90;;;;;;5093967;28;20205;-83
2021/03/08 09:55:19;;;;;;;21.52;11.73;;;4.40;99.90;;;;;;5094211;28;20212;-84
2021/03/08 09:57:45;;;;;;;18.30;11.93;;;4.60;99.90;;;;;;5094332;28;20232;-84
2021/03/08 10:00:14;;;;;;;16.05;10.68;;;4.60;98.40;;;;;;5092838;28;20236;-81
2021/03/08 10:02:41;;;;;;;19.07;12.67;;;4.70;99.90;;;;;;5092841;28;20485;-82
2021/03/08 10:05:09;;;;;;;15.95;12.23;;;4.70;99.90;;;;;;5092690;28;20519;-83
2021/03/08 10:07:49;;;;;;;16.15;12.27;;;4.80;99.90;;;;;;5094319;28;20288;-84
2021/03/08 10:10:17;;;;;;;16.33;10.82;;;4.60;97.50;;;;;;5093910;28;20204;-84
2021/03/08 10:12:44;;;;;;;16.23;11.15;;;;;;;;;;5093441;28;20296;-84
2021/03/08 10:15:12;;;;;;;19.05;10.80;;;4.90;99.90;;;;;;5091280;28;20300;-86
2021/03/08 10:18:00;;;;;;;15.55;13.43;;;5.00;97.00;;;;;;5093412;28;20633;-84
2021/03/08 10:20:27;;;;;;;16.50;12.05;;;4.90;99.90;;;;;;5093507;28;20209;-83
2021/03/08 10:22:54;;;;;;;14.68;10.70;;;4.90;97.70;;;;;;5093368;28;20235;-83
2021/03/08 10:25:23;;;;;;;15.80;10.93;;;4.80;99.90;;;;;;5093608;28;20257;-84
2021/03/08 10:27:54;;;;;;;12.85;10.63;;;4.90;97.30;;;;;;5093001;28;20271;-84
2021/03/08 10:30:21;;;;;;;13.63;10.32;;;5.10;97.70;;;;;;5091601;28;20222;-83
2021/03/08 10:32:50;;;;;;;16.75;11.00;;;5.30;97.70;;;;;;5093252;28;20311;-84
2021/03/08 10:35:18;;;;;;;18.30;12.38;;;5.30;96.70;;;;;;5093096;28;20738;-85
2021/03/08 10:37:45;;;;;;;15.52;11.30;;;5.50;99.90;;;;;;5093067;28;20283;-84
2021/03/08 10:40:12;;;;;;;13.75;9.93;;;;;;;;;;5092966;28;20205;-85
2021/03/08 10:42:39;;;;;;;13.55;11.25;;;;;;;;;;5092210;28;20433;-83
2021/03/08 10:45:09;;;;;;;18.75;11.25;;;5.80;95.20;;;;;;5091183;28;20813;-82
2021/03/08 10:47:35;;;;;;;12.30;10.30;;;5.50;99.90;;;;;;5093251;28;20699;-87
2021/03/08 10:50:02;;;;;;;14.30;8.70;;;5.50;99.90;;;;;;5092709;28;20346;-83
2021/03/08 10:52:29;;;;;;;13.90;9.25;;;5.60;94.70;;;;;;5093481;28;20220;-87
2021/03/08 10:54:55;;;;;;;15.30;9.20;;;5.70;94.50;;;;;;5093528;28;20221;-84
2021/03/08 10:57:24;;;;;;;12.18;8.95;;;5.80;99.90;;;;;;5093257;28;20205;-80
2021/03/08 10:59:52;;;;;;;11.82;8.05;;;5.70;94.30;;;;;;5092079;28;20369;-83
2021/03/08 11:02:20;;;;;;;13.38;9.93;;;5.60;99.90;;;;;;5092364;28;20525;-82
2021/03/08 11:04:48;;;;;;;10.93;7.90;;;6.10;94.20;;;;;;5092486;28;20236;-82
2021/03/08 11:07:15;;;;;;;10.75;7.85;;;6.30;99.90;;;;;;5072459;28;20236;-89
2021/03/08 11:09:45;;;;;;;9.52;8.00;;;6.40;90.90;;;;;;5073483;28;20252;-84
2021/03/08 11:12:20;;;;;;;12.15;8.00;;;6.40;91.00;;;;;;5072764;28;20201;-82
2021/03/08 11:14:47;;;;;;;10.55;8.15;;;;;;;;;;5071495;28;20229;-87
2021/03/08 11:17:14;;;;;;;13.55;7.18;;;;;;;;;;5076366;28;20201;-88
2021/03/08 11:19:41;;;;;;;13.52;8.38;;;6.50;91.20;;;;;;5073799;28;20232;-87
2021/03/08 11:22:08;;;;;;;11.57;9.13;;;6.60;92.60;;;;;;5091664;28;20433;-84
2021/03/08 11:24:42;;;;;;;9.57;8.32;;;;;;;;;;5093403;28;20287;-88
2021/03/08 11:27:16;;;;;;;11.90;8.95;;;6.50;91.00;;;;;;5094000;28;20204;-83
2021/03/08 11:29:56;;;;;;;15.02;9.93;;;6.50;91.30;;;;;;5099847;28;20234;-85
2021/03/08 11:32:24;;;;;;;11.23;8.20;;;6.30;90.60;;;;;;5110896;28;20212;-85
2021/03/08 11:34:53;;;;;;;11.52;8.55;;;6.40;92.00;;;;;;5110373;28;20188;-84
2021/03/08 11:37:20;;;;;;;10.85;9.00;;;6.60;97.60;;;;;;5117136;28;20201;-84
2021/03/08 11:39:48;;;;;;;9.20;7.95;;;6.30;99.90;;;;;;5117379;28;20236;-81
2021/03/08 11:42:18;;;;;;;14.13;9.68;;;6.40;91.60;;;;;;5117034;28;20211;-85
2021/03/08 11:44:45;;;;;;;10.52;8.50;;;6.40;91.60;;;;;;5101890;28;20225;-81
2021/03/08 11:47:12;;;;;;;11.23;7.93;;;6.40;99.80;;;;;;5093261;28;20236;-84
2021/03/08 11:49:39;;;;;;;9.18;7.72;;;6.30;91.20;;;;;;5097000;28;20284;-84
2021/03/08 11:52:06;;;;;;;9.15;8.10;;;6.80;98.70;;;;;;5096734;28;20292;-83
2021/03/08 11:54:33;;;;;;;8.90;7.85;;;6.90;91.00;;;;;;5096129;28;20296;-84
2021/03/08 11:57:00;;;;;;;10.15;7.93;;;7.20;98.20;;;;;;5096567;28;20253;-81
2021/03/08 11:59:28;;;;;;;9.75;7.60;;;7.10;88.40;;;;;;5083165;28;20320;-81
2021/03/08 12:01:55;;;;;;;11.60;9.05;;;7.10;88.30;;;;;;5075611;28;20288;-82
2021/03/08 12:04:21;;;;;;;9.38;7.38;;;;;;;;;;5075216;28;20204;-81
2021/03/08 12:06:48;;;;;;;9.30;6.75;;;7.40;89.20;;;;;;5075579;28;20205;-81
2021/03/08 12:09:15;;;;;;;10.13;6.85;;;7.50;87.20;;;;;;5076071;28;20286;-86
2021/03/08 12:11:42;;;;;;;9.25;7.93;;;7.50;95.40;;;;;;5075726;28;20301;-83
2021/03/08 12:14:08;;;;;;;7.25;6.55;;;7.80;95.40;;;;;;5074108;28;21109;-84
2021/03/08 12:16:36;;;;;;;9.15;6.57;;;7.60;83.70;;;;;;5079653;28;20334;-82
2021/03/08 12:19:04;;;;;;;7.85;7.05;;;7.60;83.10;;;;;;5096221;28;20253;-85
2021/03/08 12:21:31;;;;;;;8.93;8.03;;;;;;;;;;5095288;28;20583;-84
2021/03/08 12:23:58;;;;;;;8.05;6.78;;;7.60;82.50;;;;;;5096335;28;20563;-83
2021/03/08 12:26:25;;;;;;;8.55;6.95;;;7.50;83.10;;;;;;5096346;28;20239;-86
2021/03/08 12:28:52;;;;;;;6.90;5.40;;;7.60;81.40;;;;;;5095479;28;20331;-84
2021/03/08 12:31:20;;;;;;;6.70;6.00;;;7.60;80.70;;;;;;5095290;28;20257;-84
2021/03/08 12:33:47;;;;;;;9.82;7.13;;;7.50;93.00;;;;;;5087134;28;20244;-90
2021/03/08 12:36:14;;;;;;;7.85;5.68;;;7.50;81.20;;;;;;5076050;28;20301;-88
2021/03/08 12:38:40;;;;;;;7.55;5.65;;;7.60;81.40;;;;;;5075522;28;20289;-87
2021/03/08 12:41:07;;;;;;;6.32;5.20;;;7.70;79.00;;;;;;5077741;28;20293;-88
2021/03/08 12:43:33;;;;;;;6.88;5.40;;;8.20;79.40;;;;;;5075697;28;20292;-86
2021/03/08 12:46:00;;;;;;;8.05;6.55;;;7.80;79.90;;;;;;5075937;28;20222;-88
2021/03/08 12:48:26;;;;;;;9.55;6.35;;;8.10;81.40;;;;;;5082656;28;20635;-88
2021/03/08 12:50:54;;;;;;;7.82;5.50;;;7.90;78.10;;;;;;5081491;28;20225;-87
2021/03/08 12:53:20;;;;;;;8.93;7.20;;;7.90;76.00;;;;;;5074794;28;20285;-86
2021/03/08 12:55:47;;;;;;;6.95;6.22;;;7.70;77.20;;;;;;5075902;28;20209;-88
2021/03/08 12:58:13;;;;;;;7.05;4.57;;;7.90;90.00;;;;;;5076757;28;20672;-87
2021/03/08 13:00:40;;;;;;;6.13;5.53;;;;;;;;;;5073865;28;20296;-86
2021/03/08 13:03:06;;;;;;;7.03;6.05;;;8.20;78.00;;;;;;5075824;28;20293;-91
2021/03/08 13:05:33;;;;;;;6.45;5.45;;;8.20;93.70;;;;;;5075868;28;20236;-88
2021/03/08 13:08:00;;;;;;;7.18;6.07;;;8.00;78.30;;;;;;5075771;28;20668;-90
2021/03/08 13:10:27;;;;;;;7.00;6.32;;;;;;;;;;5076117;28;20313;-88
2021/03/08 13:12:54;;;;;;;9.23;7.22;;;8.70;91.90;;;;;;5075966;28;20201;-86
2021/03/08 13:15:20;;;;;;;6.87;6.00;;;8.60;92.80;;;;;;5078977;28;20343;-87
2021/03/08 13:17:47;;;;;;;7.20;5.97;;;8.50;82.10;;;;;;5094999;28;20485;-84
2021/03/08 13:20:15;;;;;;;9.10;6.25;;;8.40;80.50;;;;;;5095149;28;20586;-92